createdAt,value
2019-02-04T00:01:29.114Z,16.77
2019-02-04T00:03:57.738Z,24.10
2019-02-04T00:06:26.365Z,27.07
2019-02-04T00:08:54.944Z,17.43
2019-02-04T00:11:23.547Z,13.50
2019-02-04T00:13:52.180Z,11.20
2019-02-04T00:16:20.795Z,19.37
2019-02-04T00:18:49.408Z,17.60
2019-02-04T00:21:18.045Z,10.07
2019-02-04T00:23:46.682Z,9.60
2019-02-04T00:26:15.291Z,12.30
2019-02-04T00:28:43.933Z,13.90
2019-02-04T00:31:12.540Z,12.88
2019-02-04T00:33:41.132Z,12.93
2019-02-04T00:36:09.714Z,19.03
2019-02-04T00:38:38.348Z,17.93
2019-02-04T00:41:06.916Z,12.33
2019-02-04T00:43:35.595Z,15.50
2019-02-04T00:46:04.240Z,15.43
2019-02-04T00:48:33.458Z,12.13
2019-02-04T00:51:02.093Z,12.33
2019-02-04T00:53:30.687Z,11.50
2019-02-04T00:55:59.318Z,9.47
2019-02-04T00:58:27.947Z,10.37
2019-02-04T01:00:56.542Z,12.05
2019-02-04T01:03:25.513Z,11.27
2019-02-04T01:05:54.201Z,10.10
2019-02-04T01:08:22.810Z,12.97
2019-02-04T01:10:51.432Z,12.13
2019-02-04T01:13:20.087Z,17.73
2019-02-04T01:15:48.715Z,14.90
2019-02-04T01:18:17.761Z,11.17
2019-02-04T01:20:46.354Z,10.67
2019-02-04T01:23:15.028Z,10.00
2019-02-04T01:25:43.754Z,11.73
2019-02-04T01:28:12.371Z,11.03
2019-02-04T01:30:40.960Z,11.70
2019-02-04T01:33:09.860Z,13.60
2019-02-04T01:35:38.569Z,11.27
2019-02-04T01:38:07.170Z,10.57
2019-02-04T01:40:35.781Z,11.13
2019-02-04T01:43:04.409Z,17.90
2019-02-04T01:45:33.057Z,17.33
2019-02-04T01:48:01.984Z,11.87
2019-02-04T01:50:30.580Z,17.73
2019-02-04T01:52:59.195Z,17.80
2019-02-04T01:55:27.831Z,12.77
2019-02-04T01:57:57.045Z,12.83
2019-02-04T02:00:33.896Z,12.23
2019-02-04T02:03:02.505Z,16.57
2019-02-04T02:05:31.092Z,11.00
2019-02-04T02:07:59.745Z,10.23
2019-02-04T02:10:28.362Z,11.50
2019-02-04T02:12:57.010Z,33.60
2019-02-04T02:15:25.635Z,18.77
2019-02-04T02:17:54.261Z,19.67
2019-02-04T02:20:26.483Z,15.47
2019-02-04T02:22:55.280Z,10.90
2019-02-04T02:25:23.840Z,12.17
2019-02-04T02:27:52.576Z,16.07
2019-02-04T02:30:24.127Z,9.80
2019-02-04T02:32:52.811Z,12.03
2019-02-04T02:35:21.451Z,10.13
2019-02-04T02:37:50.018Z,20.27
2019-02-04T02:40:30.523Z,16.90
2019-02-04T02:42:59.405Z,14.00
2019-02-04T02:45:28.015Z,10.60
2019-02-04T02:47:56.647Z,12.07
2019-02-04T02:50:25.286Z,17.00
2019-02-04T02:52:54.060Z,18.33
2019-02-04T02:55:22.762Z,13.88
2019-02-04T02:57:51.521Z,10.57
2019-02-04T03:00:21.983Z,13.23
2019-02-04T03:02:50.697Z,14.93
2019-02-04T03:05:19.319Z,13.60
2019-02-04T03:07:47.882Z,17.17
2019-02-04T03:10:22.341Z,20.63
2019-02-04T03:12:51.143Z,11.87
2019-02-04T03:15:19.781Z,14.57
2019-02-04T03:17:52.081Z,14.60
2019-02-04T03:20:18.821Z,15.43
2019-02-04T03:22:47.512Z,12.97
2019-02-04T03:25:16.480Z,11.70
2019-02-04T03:27:45.250Z,11.97
2019-02-04T03:30:37.543Z,17.20
2019-02-04T03:33:06.191Z,11.30
2019-02-04T03:35:34.911Z,11.63
2019-02-04T03:38:03.503Z,14.70
2019-02-04T03:40:32.915Z,13.33
2019-02-04T03:43:01.577Z,14.70
2019-02-04T03:45:30.220Z,12.13
2019-02-04T03:48:05.933Z,13.00
2019-02-04T03:50:29.375Z,14.17
2019-02-04T03:52:58.046Z,19.63
2019-02-04T03:55:26.619Z,16.23
2019-02-04T03:57:55.218Z,24.50
2019-02-04T04:00:28.764Z,20.77
2019-02-04T04:02:57.389Z,14.10
2019-02-04T04:05:26.416Z,11.23
2019-02-04T04:07:55.069Z,22.50
2019-02-04T04:10:23.686Z,24.93
2019-02-04T04:12:52.362Z,27.47
2019-02-04T04:15:20.943Z,31.37
2019-02-04T04:17:49.656Z,19.80
2019-02-04T04:20:19.050Z,14.33
2019-02-04T04:22:47.754Z,16.17
2019-02-04T04:25:16.400Z,17.23
2019-02-04T04:27:45.083Z,19.80
2019-02-04T04:30:19.412Z,23.23
2019-02-04T04:32:48.141Z,17.13
2019-02-04T04:35:17.035Z,21.63
2019-02-04T04:37:45.665Z,17.92
2019-02-04T04:40:14.765Z,19.20
2019-02-04T04:42:43.636Z,21.17
2019-02-04T04:45:14.704Z,18.73
2019-02-04T04:47:43.321Z,23.60
2019-02-04T04:50:11.932Z,13.23
2019-02-04T04:52:40.543Z,22.73
2019-02-04T04:55:10.447Z,23.97
2019-02-04T04:57:39.138Z,21.93
2019-02-04T05:00:10.092Z,21.10
2019-02-04T05:02:38.708Z,26.23
2019-02-04T05:05:08.590Z,25.27
2019-02-04T05:07:37.183Z,17.87
2019-02-04T05:10:07.075Z,24.30
2019-02-04T05:12:35.681Z,19.33
2019-02-04T05:15:05.066Z,28.50
2019-02-04T05:17:34.209Z,24.13
2019-02-04T05:20:02.821Z,24.73
2019-02-04T05:22:31.399Z,15.87
2019-02-04T05:25:00.026Z,17.57
2019-02-04T05:27:28.590Z,22.57
2019-02-04T05:29:58.153Z,27.83
2019-02-04T05:32:27.186Z,23.10
2019-02-04T05:34:57.610Z,23.23
2019-02-04T05:37:26.302Z,16.73
2019-02-04T05:39:54.969Z,25.37
2019-02-04T05:42:23.571Z,23.87
2019-02-04T05:44:52.157Z,28.57
2019-02-04T05:47:21.004Z,19.93
2019-02-04T05:49:49.657Z,24.43
2019-02-04T05:52:18.284Z,33.60
2019-02-04T05:54:46.924Z,31.52
2019-02-04T05:57:15.925Z,33.10
2019-02-04T05:59:44.483Z,19.57
2019-02-04T06:02:13.377Z,27.13
2019-02-04T06:04:42.052Z,24.13
2019-02-04T06:07:10.745Z,27.52
2019-02-04T06:09:39.380Z,40.83
2019-02-04T06:12:08.053Z,28.43
2019-02-04T06:14:36.778Z,29.20
2019-02-04T06:17:05.422Z,32.23
2019-02-04T06:19:34.006Z,34.73
2019-02-04T06:22:02.651Z,33.13
2019-02-04T06:24:31.413Z,26.73
2019-02-04T06:27:00.042Z,30.80
2019-02-04T06:29:28.908Z,31.23
2019-02-04T06:31:57.711Z,30.70
2019-02-04T06:34:26.333Z,24.97
2019-02-04T06:36:55.002Z,19.93
2019-02-04T06:39:23.665Z,30.70
2019-02-04T06:41:52.280Z,27.33
2019-02-04T06:44:20.899Z,30.33
2019-02-04T06:46:49.542Z,36.30
2019-02-04T06:49:18.222Z,32.23
2019-02-04T06:51:47.192Z,25.07
2019-02-04T06:54:15.785Z,25.55
2019-02-04T06:56:44.410Z,32.13
2019-02-04T06:59:12.995Z,30.97
2019-02-04T07:01:41.724Z,24.03
2019-02-04T07:04:10.612Z,21.37
2019-02-04T07:06:39.385Z,17.53
2019-02-04T07:09:10.743Z,23.13
2019-02-04T07:11:39.373Z,18.63
2019-02-04T07:14:07.970Z,19.63
2019-02-04T07:16:36.591Z,16.90
2019-02-04T07:19:05.951Z,19.37
2019-02-04T07:21:34.688Z,20.67
2019-02-04T07:24:03.375Z,26.10
2019-02-04T07:26:32.068Z,22.47
2019-02-04T07:29:00.781Z,20.53
2019-02-04T07:31:29.418Z,17.40
2019-02-04T07:33:58.044Z,20.83
2019-02-04T07:36:26.800Z,17.47
2019-02-04T07:38:55.434Z,31.77
2019-02-04T07:41:24.120Z,28.87
2019-02-04T07:43:52.763Z,23.62
2019-02-04T07:46:21.396Z,18.07
2019-02-04T07:48:49.992Z,21.57
2019-02-04T07:51:18.803Z,21.50
2019-02-04T07:53:47.465Z,21.23
2019-02-04T07:56:16.141Z,21.83
2019-02-04T07:58:44.804Z,23.10
2019-02-04T08:01:16.382Z,25.30
2019-02-04T08:03:45.058Z,18.00
2019-02-04T08:06:13.652Z,24.07
2019-02-04T08:08:42.308Z,22.83
2019-02-04T08:11:10.986Z,22.03
2019-02-04T08:13:39.660Z,24.60
2019-02-04T08:16:08.338Z,21.27
2019-02-04T08:18:37.188Z,17.70
2019-02-04T08:21:06.061Z,24.27
2019-02-04T08:23:34.801Z,18.17
2019-02-04T08:26:03.389Z,22.77
2019-02-04T08:28:32.063Z,15.77
2019-02-04T08:31:00.686Z,16.17
2019-02-04T08:33:29.439Z,21.77
2019-02-04T08:35:58.324Z,16.43
2019-02-04T08:38:26.981Z,21.27
2019-02-04T08:40:55.625Z,23.30
2019-02-04T08:43:24.260Z,17.60
2019-02-04T08:45:52.868Z,18.45
2019-02-04T08:48:21.742Z,16.83
2019-02-04T08:50:50.502Z,27.57
2019-02-04T08:55:59.581Z,15.67
2019-02-04T08:58:28.171Z,14.47
2019-02-04T09:00:56.928Z,20.00
2019-02-04T09:03:25.571Z,12.13
2019-02-04T09:05:54.526Z,19.00
2019-02-04T09:08:23.229Z,10.77
2019-02-04T09:10:51.843Z,15.00
2019-02-04T09:13:20.489Z,16.63
2019-02-04T09:15:49.317Z,19.00
2019-02-04T09:18:17.976Z,17.60
2019-02-04T09:20:46.669Z,12.67
2019-02-04T09:23:16.093Z,14.30
2019-02-04T09:25:44.791Z,19.73
2019-02-04T09:28:13.449Z,16.73
2019-02-04T09:30:42.088Z,29.50
2019-02-04T09:33:10.703Z,15.73
2019-02-04T09:35:39.325Z,17.13
2019-02-04T09:38:08.028Z,14.68
2019-02-04T09:40:44.237Z,15.03
2019-02-04T09:43:13.004Z,16.90
2019-02-04T09:45:43.257Z,15.90
2019-02-04T09:48:15.603Z,16.07
2019-02-04T09:50:44.319Z,14.47
2019-02-04T09:53:12.957Z,16.57
2019-02-04T09:55:41.688Z,15.93
2019-02-04T09:58:10.530Z,15.60
2019-02-04T10:00:39.138Z,14.33
2019-02-04T10:03:08.024Z,11.33
2019-02-04T10:05:36.718Z,16.70
2019-02-04T10:08:05.981Z,11.20
2019-02-04T10:10:34.614Z,13.00
2019-02-04T10:13:03.282Z,16.17
2019-02-04T10:15:34.373Z,13.93
2019-02-04T10:18:03.077Z,14.30
2019-02-04T10:20:34.501Z,17.77
2019-02-04T10:23:02.153Z,12.20
2019-02-04T10:25:32.846Z,19.60
2019-02-04T10:28:09.011Z,11.97
2019-02-04T10:30:37.742Z,12.27
2019-02-04T10:33:06.439Z,11.53
2019-02-04T10:35:35.298Z,14.40
2019-02-04T10:38:04.315Z,14.78
2019-02-04T10:40:32.951Z,11.50
2019-02-04T10:43:01.590Z,16.07
2019-02-04T10:45:30.221Z,17.47
2019-02-04T10:47:59.001Z,20.40
2019-02-04T10:50:30.497Z,20.57
2019-02-04T10:52:59.380Z,14.63
2019-02-04T10:55:28.030Z,19.87
2019-02-04T10:57:56.774Z,23.73
2019-02-04T11:00:26.950Z,19.67
2019-02-04T11:02:55.592Z,13.47
2019-02-04T11:05:26.262Z,17.63
2019-02-04T11:07:54.938Z,16.93
2019-02-04T11:10:26.907Z,15.47
2019-02-04T11:12:55.949Z,14.03
2019-02-04T11:15:25.701Z,14.10
2019-02-04T11:17:54.503Z,22.87
2019-02-04T11:20:24.631Z,20.03
2019-02-04T11:22:53.427Z,16.57
2019-02-04T11:25:22.172Z,17.23
2019-02-04T11:27:51.053Z,12.43
2019-02-04T11:30:30.914Z,15.60
2019-02-04T11:32:59.669Z,12.53
2019-02-04T11:35:28.236Z,15.63
2019-02-04T11:37:57.003Z,20.20
2019-02-04T11:40:28.576Z,9.73
2019-02-04T11:42:57.362Z,9.73
2019-02-04T11:45:26.359Z,13.27
2019-02-04T11:47:55.014Z,11.30
2019-02-04T11:50:23.708Z,19.50
2019-02-04T11:52:52.406Z,12.00
2019-02-04T11:55:21.206Z,13.43
2019-02-04T11:57:49.866Z,13.37
2019-02-04T12:00:23.555Z,14.83
2019-02-04T12:02:52.691Z,11.10
2019-02-04T12:05:21.829Z,10.93
2019-02-04T12:07:50.454Z,14.37
2019-02-04T12:10:43.415Z,10.37
2019-02-04T12:13:12.036Z,15.17
2019-02-04T12:15:40.723Z,13.00
2019-02-04T12:18:09.386Z,14.07
2019-02-04T12:20:39.938Z,10.90
2019-02-04T12:23:08.470Z,16.50
2019-02-04T12:25:37.465Z,10.23
2019-02-04T12:28:06.053Z,11.77
2019-02-04T12:30:36.984Z,11.57
2019-02-04T12:33:07.874Z,10.27
2019-02-04T12:35:36.561Z,15.23
2019-02-04T12:38:05.227Z,9.30
2019-02-04T12:40:34.245Z,9.87
2019-02-04T12:43:02.794Z,10.70
2019-02-04T12:45:32.570Z,14.47
2019-02-04T12:48:01.321Z,13.03
2019-02-04T12:50:30.086Z,12.73
2019-02-04T12:52:58.740Z,9.20
2019-02-04T12:55:29.267Z,11.60
2019-02-04T12:57:58.035Z,12.33
2019-02-04T13:00:27.823Z,8.70
2019-02-04T13:02:56.610Z,9.40
2019-02-04T13:05:28.270Z,7.63
2019-02-04T13:07:56.882Z,9.33
2019-02-04T13:10:25.875Z,8.77
2019-02-04T13:12:54.546Z,10.37
2019-02-04T13:15:23.364Z,12.33
2019-02-04T13:17:52.032Z,7.00
2019-02-04T13:20:20.702Z,11.37
2019-02-04T13:22:49.388Z,16.60
2019-02-04T13:25:20.686Z,9.17
2019-02-04T13:27:49.357Z,15.33
2019-02-04T13:30:19.549Z,6.78
2019-02-04T13:32:48.148Z,11.20
2019-02-04T13:35:17.354Z,8.63
2019-02-04T13:37:46.080Z,10.30
2019-02-04T13:40:21.082Z,18.37
2019-02-04T13:42:49.867Z,18.43
2019-02-04T13:45:18.763Z,7.83
2019-02-04T13:47:47.401Z,13.33
2019-02-04T13:50:16.654Z,9.98
2019-02-04T13:52:45.655Z,6.70
2019-02-04T13:55:25.882Z,10.17
2019-02-04T13:57:54.505Z,8.23
2019-02-04T14:00:26.846Z,11.23
2019-02-04T14:02:59.330Z,7.80
2019-02-04T14:05:24.944Z,9.63
2019-02-04T14:07:53.814Z,7.87
2019-02-04T14:10:27.638Z,7.43
2019-02-04T14:12:56.361Z,11.37
2019-02-04T14:15:25.249Z,12.60
2019-02-04T14:17:55.741Z,5.53
2019-02-04T14:20:24.466Z,7.10
2019-02-04T14:22:53.512Z,11.63
2019-02-04T14:25:22.324Z,5.60
2019-02-04T14:27:51.020Z,5.23
2019-02-04T14:30:27.059Z,5.90
2019-02-04T14:32:55.639Z,5.67
2019-02-04T14:35:24.426Z,6.63
2019-02-04T14:37:53.503Z,5.20
2019-02-04T14:40:22.164Z,12.43
2019-02-04T14:42:54.076Z,9.37
2019-02-04T14:45:44.795Z,7.90
2019-02-04T14:48:41.810Z,10.17
2019-02-04T14:51:32.297Z,6.03
2019-02-04T14:54:21.636Z,7.67
2019-02-04T14:57:35.379Z,8.17
2019-02-04T15:00:15.815Z,5.87
2019-02-04T15:03:19.663Z,4.37
2019-02-04T15:06:09.944Z,5.97
2019-02-04T15:09:00.691Z,6.47
2019-02-04T15:11:36.940Z,8.80
2019-02-04T15:14:38.694Z,18.23
2019-02-04T15:17:27.482Z,8.13
2019-02-04T15:20:36.729Z,9.53
2019-02-04T15:23:31.377Z,6.67
2019-02-04T15:26:52.533Z,8.37
2019-02-04T15:29:25.046Z,10.45
2019-02-04T15:32:43.102Z,6.70
2019-02-04T15:35:52.462Z,8.23
2019-02-04T15:39:15.004Z,6.22
2019-02-04T15:42:10.303Z,4.90
2019-02-04T15:44:57.314Z,6.30
2019-02-04T15:47:40.884Z,10.97
2019-02-04T15:50:40.245Z,6.23
2019-02-04T15:53:08.848Z,12.60
2019-02-04T15:55:39.981Z,8.30
2019-02-04T15:58:07.835Z,8.90
2019-02-04T16:00:36.417Z,8.20
2019-02-04T16:03:05.361Z,12.10
2019-02-04T16:05:33.972Z,9.10
2019-02-04T16:08:02.622Z,9.53
2019-02-04T16:10:31.227Z,12.60
2019-02-04T16:13:00.442Z,12.60
2019-02-04T16:15:29.063Z,7.33
2019-02-04T16:18:00.331Z,11.07
2019-02-04T16:20:28.942Z,11.30
2019-02-04T16:22:58.934Z,13.93
2019-02-04T16:25:27.772Z,10.43
2019-02-04T16:27:56.362Z,7.87
2019-02-04T16:30:24.967Z,13.23
2019-02-04T16:32:53.841Z,11.17
2019-02-04T16:35:22.469Z,10.10
2019-02-04T16:37:51.772Z,9.87
2019-02-04T16:40:21.470Z,11.77
2019-02-04T16:42:50.009Z,10.08
2019-02-04T16:45:19.582Z,12.03
2019-02-04T16:47:48.471Z,16.47
2019-02-04T16:50:19.660Z,10.50
2019-02-04T16:52:48.361Z,13.23
2019-02-04T16:55:17.009Z,7.97
2019-02-04T16:57:45.717Z,8.70
2019-02-04T17:00:19.783Z,6.33
2019-02-04T17:02:48.678Z,17.63
2019-02-04T17:05:17.492Z,15.40
2019-02-04T17:07:46.155Z,10.27
2019-02-04T17:10:17.205Z,14.10
2019-02-04T17:12:45.904Z,11.30
2019-02-04T17:15:14.585Z,10.50
2019-02-04T17:17:44.927Z,7.83
2019-02-04T17:20:28.448Z,6.67
2019-02-04T17:22:57.197Z,12.53
2019-02-04T17:25:25.866Z,7.33
2019-02-04T17:27:54.757Z,7.77
2019-02-04T17:30:24.168Z,7.07
2019-02-04T17:32:52.880Z,7.97
2019-02-04T17:35:21.451Z,7.47
2019-02-04T17:37:50.160Z,9.73
2019-02-04T17:40:20.280Z,8.00
2019-02-04T17:42:49.033Z,12.63
2019-02-04T17:45:18.630Z,6.57
2019-02-04T17:47:47.684Z,7.00
2019-02-04T17:50:17.823Z,10.27
2019-02-04T17:52:46.460Z,8.10
2019-02-04T17:55:18.470Z,17.83
2019-02-04T17:57:47.097Z,15.28
2019-02-04T18:00:25.477Z,14.53
2019-02-04T18:02:54.049Z,13.10
2019-02-04T18:05:22.656Z,23.30
2019-02-04T18:07:51.262Z,19.30
2019-02-04T18:10:19.924Z,22.10
2019-02-04T18:12:48.832Z,17.63
2019-02-04T18:15:18.785Z,18.10
2019-02-04T18:17:47.434Z,10.93
2019-02-04T18:20:16.280Z,16.33
2019-02-04T18:22:44.856Z,15.63
2019-02-04T18:25:15.153Z,12.60
2019-02-04T18:27:45.310Z,11.67
2019-02-04T18:30:16.312Z,7.63
2019-02-04T18:32:44.958Z,10.53
2019-02-04T18:35:13.725Z,9.37
2019-02-04T18:37:42.368Z,14.53
2019-02-04T18:40:12.616Z,14.53
2019-02-04T18:42:41.558Z,19.63
2019-02-04T18:45:13.672Z,13.87
2019-02-04T18:47:42.312Z,7.80
2019-02-04T18:50:11.043Z,11.03
2019-02-04T18:52:39.855Z,13.17
2019-02-04T18:55:10.470Z,10.77
2019-02-04T18:57:39.224Z,14.57
2019-02-04T19:00:08.563Z,17.07
2019-02-04T19:02:37.195Z,13.10
2019-02-04T19:05:06.917Z,11.57
2019-02-04T19:07:35.875Z,17.83
2019-02-04T19:10:06.478Z,15.13
2019-02-04T19:12:35.104Z,14.18
2019-02-04T19:15:03.834Z,15.30
2019-02-04T19:17:32.417Z,15.27
2019-02-04T19:20:01.105Z,12.00
2019-02-04T19:22:29.695Z,18.10
2019-02-04T19:24:58.298Z,15.93
2019-02-04T19:27:26.912Z,17.13
2019-02-04T19:29:55.546Z,12.37
2019-02-04T19:32:24.252Z,13.57
2019-02-04T19:34:52.895Z,11.07
2019-02-04T19:37:22.955Z,16.27
2019-02-04T19:39:52.062Z,13.50
2019-02-04T19:42:20.639Z,11.70
2019-02-04T19:44:49.366Z,11.53
2019-02-04T19:47:17.948Z,8.80
2019-02-04T19:49:46.547Z,14.40
2019-02-04T19:52:15.142Z,17.10
2019-02-04T19:54:44.024Z,18.77
2019-02-04T19:57:13.244Z,12.37
2019-02-04T19:59:44.141Z,18.03
2019-02-04T20:02:13.123Z,18.30
2019-02-04T20:04:41.837Z,15.40
2019-02-04T20:07:10.425Z,11.93
2019-02-04T20:09:39.522Z,16.97
2019-02-04T20:12:08.147Z,14.03
2019-02-04T20:14:36.971Z,11.73
2019-02-04T20:17:05.961Z,15.83
2019-02-04T20:19:35.195Z,14.97
2019-02-04T20:22:03.799Z,20.50
2019-02-04T20:24:33.450Z,12.50
2019-02-04T20:27:02.434Z,11.03
2019-02-04T20:29:31.365Z,21.37
2019-02-04T20:32:00.011Z,13.27
2019-02-04T20:34:28.857Z,15.13
2019-02-04T20:36:57.525Z,9.07
2019-02-04T20:39:26.574Z,11.77
2019-02-04T20:41:55.440Z,15.93
2019-02-04T20:44:24.076Z,14.40
2019-02-04T20:46:58.118Z,12.03
2019-02-04T20:49:26.744Z,13.73
2019-02-04T20:51:55.353Z,15.60
2019-02-04T20:54:24.094Z,18.67
2019-02-04T20:56:52.932Z,15.07
2019-02-04T20:59:21.614Z,16.73
2019-02-04T21:01:50.230Z,19.70
2019-02-04T21:04:18.838Z,12.10
2019-02-04T21:06:55.762Z,20.73
2019-02-04T21:09:17.801Z,16.10
2019-02-04T21:11:46.701Z,19.63
2019-02-04T21:14:17.352Z,17.40
2019-02-04T21:16:46.093Z,18.20
2019-02-04T21:19:14.650Z,9.53
2019-02-04T21:21:43.280Z,10.97
2019-02-04T21:24:11.850Z,11.93
2019-02-04T21:26:40.828Z,10.70
2019-02-04T21:29:09.479Z,15.60
2019-02-04T21:31:38.265Z,12.90
2019-02-04T21:34:06.861Z,11.50
2019-02-04T21:36:35.498Z,10.00
2019-02-04T21:39:05.516Z,11.07
2019-02-04T21:41:34.657Z,9.77
2019-02-04T21:44:03.700Z,7.73
2019-02-04T21:46:32.747Z,9.37
2019-02-04T21:49:01.326Z,9.83
2019-02-04T21:51:29.952Z,9.53
2019-02-04T21:53:58.532Z,12.43
2019-02-04T21:56:27.169Z,11.57
2019-02-04T21:58:55.796Z,9.87
2019-02-04T22:01:24.434Z,11.13
2019-02-04T22:03:53.071Z,11.07
2019-02-04T22:06:23.712Z,22.80
2019-02-04T22:08:52.326Z,14.30
2019-02-04T22:11:20.958Z,14.17
2019-02-04T22:13:49.808Z,10.57
2019-02-04T22:16:18.400Z,10.33
2019-02-04T22:18:47.030Z,13.43
2019-02-04T22:21:15.698Z,14.53
2019-02-04T22:23:44.433Z,30.50
2019-02-04T22:26:13.042Z,23.33
2019-02-04T22:28:41.626Z,13.20
2019-02-04T22:31:10.251Z,12.67
2019-02-04T22:33:38.862Z,10.07
2019-02-04T22:36:07.579Z,11.53
2019-02-04T22:38:36.169Z,13.10
2019-02-04T22:41:04.772Z,15.07
2019-02-04T22:43:33.345Z,9.63
2019-02-04T22:46:02.115Z,14.33
2019-02-04T22:48:30.928Z,12.00
2019-02-04T22:50:59.565Z,14.80
2019-02-04T22:53:28.184Z,13.33
2019-02-04T22:55:56.791Z,15.33
2019-02-04T22:58:25.414Z,14.47
2019-02-04T23:01:01.936Z,11.20
2019-02-04T23:03:30.618Z,15.90
2019-02-04T23:05:59.250Z,23.90
2019-02-04T23:08:27.843Z,18.57
2019-02-04T23:10:56.575Z,18.60
2019-02-04T23:13:30.009Z,15.17
2019-02-04T23:15:58.606Z,14.97
2019-02-04T23:18:27.193Z,12.63
2019-02-04T23:20:57.665Z,18.03
2019-02-04T23:23:26.291Z,21.53
2019-02-04T23:25:54.916Z,16.57
2019-02-04T23:28:23.519Z,15.87
2019-02-04T23:30:52.103Z,12.43
2019-02-04T23:33:20.705Z,10.93
2019-02-04T23:35:49.302Z,9.17
2019-02-04T23:38:17.972Z,10.43
2019-02-04T23:40:46.595Z,10.23
2019-02-04T23:43:15.198Z,10.00
2019-02-04T23:45:44.078Z,10.13
2019-02-04T23:48:12.689Z,15.60
2019-02-04T23:50:41.518Z,9.63
2019-02-04T23:53:10.123Z,10.13
2019-02-04T23:55:38.808Z,8.90
2019-02-04T23:58:07.395Z,8.13
